This is the latest recevied weather packets stored in our database for station/object W4MSI. If no packets are shown the sender has not sent any weather packets the latest 10 day(s).
| Time | Temp. | Humidity | Pressure | Rain* | Wind** | Luminosity | Snow |
|---|---|---|---|---|---|---|---|
| 1777141725 | 23.89° C | 56% | 1010 hPa | 0 mm | - | 877 W/m² | - |
| 1777141423 | 23.89° C | 61% | 1010.1 hPa | 0 mm | - | 863 W/m² | - |
| 1777141120 | 23.89° C | 58% | 1010.1 hPa | 0 mm | - | 888 W/m² | - |
| 1777140817 | 22.78° C | 62% | 1010.3 hPa | 0 mm | - | 897 W/m² | - |
| 1777140513 | 23.33° C | 62% | 1010.4 hPa | 0 mm | - | 197 W/m² | - |
| 1777140211 | 23.33° C | 65% | 1010.2 hPa | 0 mm | - | 928 W/m² | - |
| 1777139908 | 23.33° C | 62% | 1010.2 hPa | 0 mm | - | 927 W/m² | - |
| 1777139606 | 23.89° C | 64% | 1010.1 hPa | 0 mm | - | 223 W/m² | - |
| 1777139305 | 23.33° C | 63% | 1010.3 hPa | 0 mm | - | 506 W/m² | - |
| 1777139002 | 23.33° C | 65% | 1010.3 hPa | 0 mm | - | 287 W/m² | - |
| 1777138699 | 22.78° C | 64% | 1010.4 hPa | 0 mm | - | 922 W/m² | - |
| 1777138394 | 22.78° C | 64% | 1010.4 hPa | 0 mm | - | 372 W/m² | - |
| 1777138090 | 23.33° C | 63% | 1010.4 hPa | 0 mm | - | 340 W/m² | - |
| 1777137787 | 22.78° C | 64% | 1010.5 hPa | 0 mm | - | 765 W/m² | - |
| 1777137482 | 22.78° C | 67% | 1010.6 hPa | 0 mm | - | 979 W/m² | - |
| 1777137180 | 22.22° C | 67% | 1010.7 hPa | 0 mm | - | 945 W/m² | - |
| 1777136877 | 22.78° C | 63% | 1010.8 hPa | 0 mm | - | 205 W/m² | - |
| 1777136573 | 22.78° C | 63% | 1010.7 hPa | 0 mm | - | 237 W/m² | - |
| 1777136271 | 22.78° C | 65% | 1010.5 hPa | 0 mm | - | 785 W/m² | - |
| 1777135969 | 22.22° C | 63% | 1010.7 hPa | 0 mm | - | 879 W/m² | - |
| 1777135663 | 22.22° C | 69% | 1010.7 hPa | 0 mm | - | 861 W/m² | - |
| 1777135360 | 22.22° C | 64% | 1010.7 hPa | 0 mm | - | 869 W/m² | - |
| 1777135057 | 22.22° C | 67% | 1010.9 hPa | 0 mm | - | 851 W/m² | - |
| 1777134754 | 22.22° C | 65% | 1010.8 hPa | 0 mm | - | 812 W/m² | - |
| 1777134450 | 22.22° C | 66% | 1010.8 hPa | 0 mm | - | 558 W/m² | - |
* Rain latest hour (hover to see other rain measurements)
** Current wind speed in m/s (hover to see current wind gust speed)